Time;durP1;ratioP1;P1;durP2;ratioP2;P2;SDS_P1;SDS_P2;PMS_P1;PMS_P2;Temp;Humidity;BMP_temperature;BMP_pressure;BME280_temperature;BME280_humidity;BME280_pressure;Samples;Min_cycle;Max_cycle;Signal;HPM_P1;HPM_P2
2022/07/02 00:00:51;;;;;;;;;;;26.80;52.60;;;;;;5054828;28;19913;-80
2022/07/02 00:03:20;;;;;;;;;;;26.80;52.70;;;;;;5037057;28;19947;-81
2022/07/02 00:05:47;;;;;;;;;;;26.80;52.80;;;;;;5037158;28;20220;-81
2022/07/02 00:08:12;;;;;;;;;;;26.80;53.10;;;;;;5054932;28;19909;-81
2022/07/02 00:10:38;;;;;;;;;;;26.70;53.00;;;;;;5055178;28;19931;-80
2022/07/02 00:13:04;;;;;;;;;;;26.70;53.10;;;;;;5054725;28;19954;-80
2022/07/02 00:15:30;;;;;;;;;;;26.70;52.90;;;;;;5020548;28;19913;-82
2022/07/02 00:17:55;;;;;;;;;;;26.70;53.40;;;;;;5054776;28;19936;-81
2022/07/02 00:20:21;;;;;;;;;;;26.70;53.30;;;;;;5054607;28;20378;-80
2022/07/02 00:22:47;;;;;;;;;;;26.70;53.50;;;;;;5036945;28;19963;-81
2022/07/02 00:25:13;;;;;;;;;;;26.70;53.30;;;;;;5054503;28;19944;-81
2022/07/02 00:27:40;;;;;;;;;;;26.70;53.50;;;;;;5054603;28;20377;-81
2022/07/02 00:30:06;;;;;;;;;;;26.70;53.70;;;;;;5054365;28;19909;-80
2022/07/02 00:32:33;;;;;;;;;;;26.70;54.20;;;;;;5021518;28;19909;-80
2022/07/02 00:35:03;;;;;;;;;;;26.60;54.20;;;;;;5054868;28;20324;-80
2022/07/02 00:37:29;;;;;;;;;;;26.60;54.20;;;;;;5053704;28;20370;-81
2022/07/02 00:39:55;;;;;;;;;;;26.40;53.10;;;;;;5054296;28;19967;-81
2022/07/02 00:42:21;;;;;;;;;;;26.30;53.80;;;;;;5036533;28;19913;-80
2022/07/02 00:44:47;;;;;;;;;;;26.20;54.00;;;;;;5036365;28;19909;-80
2022/07/02 00:47:13;;;;;;;;;;;26.20;54.00;;;;;;5054070;28;19917;-80
2022/07/02 00:49:39;;;;;;;;;;;26.20;54.20;;;;;;5036278;28;19908;-80
2022/07/02 00:52:06;;;;;;;;;;;26.20;54.20;;;;;;5054458;28;19909;-80
2022/07/02 00:54:31;;;;;;;;;;;26.20;54.10;;;;;;5054018;28;19954;-80
2022/07/02 00:56:57;;;;;;;;;;;26.30;54.40;;;;;;5053885;28;19917;-80
2022/07/02 00:59:23;;;;;;;;;;;26.20;53.80;;;;;;5053894;28;19971;-80
2022/07/02 01:01:49;;;;;;;;;;;26.20;54.30;;;;;;5053559;28;20347;-80
2022/07/02 01:04:15;;;;;;;;;;;26.20;54.00;;;;;;5054275;28;19996;-80
2022/07/02 01:06:41;;;;;;;;;;;26.20;53.70;;;;;;5054601;28;19916;-80
2022/07/02 01:11:55;;;;;;;;;;;26.20;53.50;;;;;;5054153;28;20324;-81
2022/07/02 01:14:20;;;;;;;;;;;26.30;53.60;;;;;;5053952;28;20020;-80
2022/07/02 01:16:46;;;;;;;;;;;26.30;53.50;;;;;;5053794;28;20015;-81
2022/07/02 01:19:16;;;;;;;;;;;26.20;53.30;;;;;;5053633;28;19940;-81
2022/07/02 01:22:01;;;;;;;;;;;26.20;53.40;;;;;;5035867;28;19959;-81
2022/07/02 01:24:27;;;;;;;;;;;26.10;53.20;;;;;;5025254;28;20275;-82
2022/07/02 01:26:53;;;;;;;;;;;26.10;53.10;;;;;;5053532;28;19908;-81
2022/07/02 01:29:18;;;;;;;;;;;26.10;53.00;;;;;;5053651;28;19919;-81
2022/07/02 01:31:44;;;;;;;;;;;26.10;53.00;;;;;;5036193;28;19908;-80
2022/07/02 01:34:09;;;;;;;;;;;26.10;53.10;;;;;;5053662;28;19913;-80
2022/07/02 01:36:35;;;;;;;;;;;26.20;53.00;;;;;;5035809;28;20351;-80
2022/07/02 01:39:01;;;;;;;;;;;26.10;53.10;;;;;;5053766;28;20232;-81
2022/07/02 01:41:38;;;;;;;;;;;26.20;52.70;;;;;;5055422;28;20252;-80
2022/07/02 01:44:04;;;;;;;;;;;26.10;52.80;;;;;;5054471;28;19908;-80
2022/07/02 01:46:29;;;;;;;;;;;26.10;52.70;;;;;;5054413;28;19971;-82
2022/07/02 01:48:55;;;;;;;;;;;26.20;52.70;;;;;;5038384;28;19994;-80
2022/07/02 01:51:20;;;;;;;;;;;26.20;52.60;;;;;;5057867;28;19939;-80
2022/07/02 01:53:46;;;;;;;;;;;26.20;52.50;;;;;;5057322;28;20421;-80
2022/07/02 01:56:11;;;;;;;;;;;26.20;52.30;;;;;;5057216;28;20008;-81
2022/07/02 01:58:37;;;;;;;;;;;26.10;52.10;;;;;;5057792;28;19909;-80
2022/07/02 02:01:03;;;;;;;;;;;26.10;52.10;;;;;;5057197;28;19999;-80
2022/07/02 02:03:28;;;;;;;;;;;26.00;51.80;;;;;;5057233;28;19912;-81
2022/07/02 02:05:54;;;;;;;;;;;26.00;52.60;;;;;;5056796;28;19909;-81
2022/07/02 02:08:19;;;;;;;;;;;26.00;52.10;;;;;;5056765;28;19913;-80
2022/07/02 02:10:45;;;;;;;;;;;26.00;52.00;;;;;;5039113;28;19909;-81
2022/07/02 02:13:10;;;;;;;;;;;26.00;51.90;;;;;;5057240;28;19913;-81
2022/07/02 02:15:36;;;;;;;;;;;26.00;51.90;;;;;;5038802;28;19955;-81
2022/07/02 02:18:01;;;;;;;;;;;26.00;51.70;;;;;;5056861;28;19923;-79
2022/07/02 02:20:27;;;;;;;;;;;26.00;51.60;;;;;;5038982;28;19908;-80
2022/07/02 02:22:52;;;;;;;;;;;26.00;51.60;;;;;;5056446;28;19955;-80
2022/07/02 02:25:18;;;;;;;;;;;26.10;51.50;;;;;;5056743;28;19919;-80
2022/07/02 02:27:43;;;;;;;;;;;26.10;51.40;;;;;;5056622;28;20412;-81
2022/07/02 02:30:09;;;;;;;;;;;26.20;51.20;;;;;;5056515;28;19948;-81
2022/07/02 02:32:36;;;;;;;;;;;26.10;50.80;;;;;;5038873;28;19913;-81
2022/07/02 02:35:05;;;;;;;;;;;26.20;51.10;;;;;;5056436;28;20346;-81
2022/07/02 02:37:31;;;;;;;;;;;26.20;51.10;;;;;;5056065;28;19927;-82
2022/07/02 02:39:56;;;;;;;;;;;26.20;50.90;;;;;;5056418;28;19909;-80
2022/07/02 02:42:22;;;;;;;;;;;26.20;50.90;;;;;;5056478;28;19909;-81
2022/07/02 02:44:47;;;;;;;;;;;26.20;50.70;;;;;;5056279;28;19916;-81
2022/07/02 02:47:13;;;;;;;;;;;26.20;50.90;;;;;;5056132;28;19944;-80
2022/07/02 02:49:38;;;;;;;;;;;26.20;50.80;;;;;;5056007;28;19931;-81
2022/07/02 02:52:04;;;;;;;;;;;26.20;50.70;;;;;;5057075;28;19909;-80
2022/07/02 02:54:30;;;;;;;;;;;26.20;50.70;;;;;;5058991;28;19916;-80
2022/07/02 02:56:55;;;;;;;;;;;26.30;50.80;;;;;;5038851;28;20015;-80
2022/07/02 02:59:21;;;;;;;;;;;26.30;50.80;;;;;;5055527;28;19915;-80
2022/07/02 03:01:47;;;;;;;;;;;26.30;50.60;;;;;;5056107;28;19970;-81
2022/07/02 03:04:12;;;;;;;;;;;26.30;50.50;;;;;;5055816;28;19913;-81
2022/07/02 03:06:38;;;;;;;;;;;26.40;50.50;;;;;;5056133;28;19909;-81
2022/07/02 03:09:03;;;;;;;;;;;26.40;50.40;;;;;;5056072;28;19908;-80
2022/07/02 03:11:29;;;;;;;;;;;26.40;50.40;;;;;;5056375;28;19995;-81
2022/07/02 03:13:55;;;;;;;;;;;26.40;50.30;;;;;;5056022;28;20310;-81
2022/07/02 03:16:20;;;;;;;;;;;26.40;50.30;;;;;;5055645;28;20362;-80
2022/07/02 03:18:46;;;;;;;;;;;26.50;50.30;;;;;;5055519;28;19963;-80
2022/07/02 03:21:12;;;;;;;;;;;26.50;50.30;;;;;;5055464;28;19909;-80
2022/07/02 03:23:37;;;;;;;;;;;26.50;50.30;;;;;;5055644;28;19912;-79
2022/07/02 03:26:03;;;;;;;;;;;26.50;50.20;;;;;;5056063;28;19963;-80
2022/07/02 03:28:29;;;;;;;;;;;26.50;50.20;;;;;;5037754;28;19995;-81
2022/07/02 03:30:54;;;;;;;;;;;26.50;50.20;;;;;;5055634;28;19913;-81
2022/07/02 03:33:20;;;;;;;;;;;26.60;50.30;;;;;;5055846;28;19909;-80
2022/07/02 03:35:46;;;;;;;;;;;26.50;50.20;;;;;;5037415;28;19920;-80
2022/07/02 03:38:11;;;;;;;;;;;26.50;50.30;;;;;;5055514;28;19916;-81
2022/07/02 03:40:37;;;;;;;;;;;26.60;50.30;;;;;;5055272;28;20042;-81
2022/07/02 03:43:02;;;;;;;;;;;26.60;50.30;;;;;;5056218;28;20309;-81
2022/07/02 03:45:28;;;;;;;;;;;26.60;50.30;;;;;;5055809;28;20019;-81
2022/07/02 03:47:53;;;;;;;;;;;26.60;50.30;;;;;;5055331;28;20011;-80
2022/07/02 03:50:19;;;;;;;;;;;26.60;50.30;;;;;;5054986;28;20275;-81
2022/07/02 03:52:44;;;;;;;;;;;26.60;50.30;;;;;;5054837;28;19912;-81
2022/07/02 03:55:10;;;;;;;;;;;26.60;49.90;;;;;;5055352;28;19912;-80
2022/07/02 03:57:35;;;;;;;;;;;26.60;49.90;;;;;;5054891;28;19917;-81
2022/07/02 04:00:02;;;;;;;;;;;26.60;50.00;;;;;;5054756;28;20236;-80
2022/07/02 04:02:28;;;;;;;;;;;26.60;50.10;;;;;;5055745;28;20273;-81
2022/07/02 04:04:53;;;;;;;;;;;26.60;50.10;;;;;;5057063;28;19909;-80
2022/07/02 04:07:19;;;;;;;;;;;26.60;50.00;;;;;;5054963;28;19909;-82
2022/07/02 04:09:45;;;;;;;;;;;26.60;50.00;;;;;;5055227;28;20071;-81
2022/07/02 04:12:10;;;;;;;;;;;26.50;49.90;;;;;;5054719;28;19967;-81
2022/07/02 04:14:36;;;;;;;;;;;26.50;50.00;;;;;;5054653;28;20398;-81
2022/07/02 04:17:01;;;;;;;;;;;26.60;50.10;;;;;;5054479;28;19944;-81
2022/07/02 04:19:28;;;;;;;;;;;26.60;50.10;;;;;;5036395;28;19909;-81
2022/07/02 04:21:54;;;;;;;;;;;26.60;50.00;;;;;;5054850;28;20266;-81
2022/07/02 04:24:20;;;;;;;;;;;26.60;50.00;;;;;;5054907;28;19917;-80
2022/07/02 04:26:45;;;;;;;;;;;26.60;49.80;;;;;;5054634;28;19909;-80
2022/07/02 04:29:11;;;;;;;;;;;26.60;49.90;;;;;;5036721;28;20000;-81
2022/07/02 04:31:36;;;;;;;;;;;26.30;49.60;;;;;;5054558;28;19913;-81
2022/07/02 04:34:02;;;;;;;;;;;26.70;49.90;;;;;;5054467;28;19915;-80
2022/07/02 04:36:27;;;;;;;;;;;26.60;49.80;;;;;;5053876;28;19921;-81
2022/07/02 04:38:53;;;;;;;;;;;26.60;49.90;;;;;;5054349;28;19916;-81
2022/07/02 04:41:18;;;;;;;;;;;26.60;49.80;;;;;;5054288;28;19908;-81
2022/07/02 04:43:44;;;;;;;;;;;26.60;49.70;;;;;;5054442;28;20004;-81
2022/07/02 04:46:10;;;;;;;;;;;26.60;49.90;;;;;;5054173;28;20007;-81
2022/07/02 04:48:35;;;;;;;;;;;26.60;49.90;;;;;;5054046;28;19913;-81
2022/07/02 04:51:01;;;;;;;;;;;26.60;49.80;;;;;;5054170;28;19917;-81
2022/07/02 04:53:27;;;;;;;;;;;26.60;49.90;;;;;;5054116;28;20023;-81
2022/07/02 04:55:52;;;;;;;;;;;26.60;49.90;;;;;;5054107;28;19909;-81
2022/07/02 04:58:18;;;;;;;;;;;26.60;49.90;;;;;;5036121;28;20023;-80
2022/07/02 05:00:43;;;;;;;;;;;26.60;49.80;;;;;;5054433;28;19913;-81
2022/07/02 05:03:09;;;;;;;;;;;26.60;49.80;;;;;;5054822;28;19913;-82
2022/07/02 05:05:34;;;;;;;;;;;26.50;49.60;;;;;;5054040;28;19956;-81
2022/07/02 05:08:00;;;;;;;;;;;26.50;49.60;;;;;;5037211;28;20286;-81
2022/07/02 05:10:25;;;;;;;;;;;26.50;49.80;;;;;;5036839;28;19909;-80
2022/07/02 05:12:51;;;;;;;;;;;26.50;49.90;;;;;;5036967;28;19909;-81
2022/07/02 05:15:16;;;;;;;;;;;26.50;49.70;;;;;;5058887;28;20374;-82
2022/07/02 05:17:42;;;;;;;;;;;26.40;49.80;;;;;;5054823;28;20409;-79
2022/07/02 05:20:08;;;;;;;;;;;26.50;49.70;;;;;;5054005;28;19955;-82
2022/07/02 05:22:33;;;;;;;;;;;26.40;49.70;;;;;;5054424;28;19962;-81
2022/07/02 05:24:59;;;;;;;;;;;26.40;49.60;;;;;;5040109;28;19909;-81
2022/07/02 05:27:24;;;;;;;;;;;26.40;49.70;;;;;;5040508;28;20291;-80
2022/07/02 05:29:50;;;;;;;;;;;26.50;49.80;;;;;;5040420;28;19913;-81
2022/07/02 05:32:16;;;;;;;;;;;26.50;49.80;;;;;;5057806;28;20260;-78
2022/07/02 05:34:41;;;;;;;;;;;26.50;49.50;;;;;;5057463;28;19909;-80
2022/07/02 05:37:07;;;;;;;;;;;26.50;49.50;;;;;;5057737;28;19960;-81
2022/07/02 05:39:32;;;;;;;;;;;26.40;49.50;;;;;;5039737;28;20000;-84
2022/07/02 05:41:58;;;;;;;;;;;26.50;49.60;;;;;;5057550;28;19916;-81
2022/07/02 05:44:23;;;;;;;;;;;26.40;49.50;;;;;;5057304;28;20022;-81
2022/07/02 05:46:49;;;;;;;;;;;26.40;49.40;;;;;;5039743;28;19913;-81
2022/07/02 05:49:14;;;;;;;;;;;26.40;49.40;;;;;;5057124;28;19908;-80
2022/07/02 05:51:40;;;;;;;;;;;26.30;49.50;;;;;;5057614;28;19912;-79
2022/07/02 05:54:06;;;;;;;;;;;26.30;49.60;;;;;;5057409;28;20007;-81
2022/07/02 05:56:31;;;;;;;;;;;26.40;49.50;;;;;;5039300;28;19917;-82
2022/07/02 05:58:57;;;;;;;;;;;26.40;50.00;;;;;;5057237;28;19909;-81
2022/07/02 06:01:22;;;;;;;;;;;26.40;49.50;;;;;;5057297;28;19913;-81
2022/07/02 06:03:48;;;;;;;;;;;26.30;49.20;;;;;;5040205;28;19915;-81
2022/07/02 06:08:58;;;;;;;;;;;26.30;48.70;;;;;;5057667;28;20334;-81
2022/07/02 06:11:23;;;;;;;;;;;26.20;49.30;;;;;;5056952;28;19956;-81
2022/07/02 06:13:49;;;;;;;;;;;26.30;49.30;;;;;;5038915;28;20421;-80
2022/07/02 06:16:14;;;;;;;;;;;26.20;49.20;;;;;;5056629;28;19913;-81
2022/07/02 06:18:40;;;;;;;;;;;26.20;49.40;;;;;;5057015;28;19963;-80
2022/07/02 06:21:05;;;;;;;;;;;26.30;49.50;;;;;;5056854;28;20012;-81
2022/07/02 06:23:31;;;;;;;;;;;26.30;49.50;;;;;;5057756;28;19909;-80
2022/07/02 06:25:56;;;;;;;;;;;26.30;49.50;;;;;;5060443;28;19909;-80
2022/07/02 06:28:23;;;;;;;;;;;26.30;49.30;;;;;;5057399;28;19909;-82
2022/07/02 06:30:49;;;;;;;;;;;26.30;49.30;;;;;;5038968;28;20363;-80
2022/07/02 06:33:14;;;;;;;;;;;26.30;49.40;;;;;;5056498;28;19913;-82
2022/07/02 06:35:43;;;;;;;;;;;26.40;49.40;;;;;;5056484;28;19924;-80
2022/07/02 06:38:09;;;;;;;;;;;26.40;49.30;;;;;;5057027;28;20011;-82
2022/07/02 06:40:34;;;;;;;;;;;26.40;49.20;;;;;;5056791;28;19948;-80
2022/07/02 06:43:00;;;;;;;;;;;26.40;49.20;;;;;;5058194;28;20266;-80
2022/07/02 06:45:25;;;;;;;;;;;26.40;48.30;;;;;;5041300;28;19913;-81
2022/07/02 06:47:51;;;;;;;;;;;26.40;48.50;;;;;;5040944;28;19920;-81
2022/07/02 06:50:18;;;;;;;;;;;26.40;48.70;;;;;;5056357;28;19951;-81
2022/07/02 06:52:45;;;;;;;;;;;26.40;48.40;;;;;;5056330;28;20286;-80
2022/07/02 06:55:11;;;;;;;;;;;26.40;48.60;;;;;;5056366;28;19916;-79
2022/07/02 06:57:37;;;;;;;;;;;26.40;47.90;;;;;;5038526;28;20332;-79
2022/07/02 07:00:03;;;;;;;;;;;26.40;48.40;;;;;;5055881;28;19959;-81
2022/07/02 07:02:29;;;;;;;;;;;26.40;47.30;;;;;;5055860;28;20352;-82
2022/07/02 07:04:55;;;;;;;;;;;26.40;47.70;;;;;;5055963;28;19916;-80
2022/07/02 07:07:26;;;;;;;;;;;26.40;47.50;;;;;;5055909;28;19908;-81
2022/07/02 07:09:52;;;;;;;;;;;26.40;46.90;;;;;;5037827;28;19916;-81
2022/07/02 07:12:17;;;;;;;;;;;26.30;47.60;;;;;;5055593;28;19909;-80
2022/07/02 07:14:43;;;;;;;;;;;26.40;47.70;;;;;;5055545;28;19920;-81
2022/07/02 07:17:09;;;;;;;;;;;26.40;46.90;;;;;;5037888;28;20271;-80
2022/07/02 07:19:34;;;;;;;;;;;26.40;47.70;;;;;;5055604;28;20268;-81
2022/07/02 07:22:01;;;;;;;;;;;25.20;45.90;;;;;;5055407;28;19967;-80
2022/07/02 07:24:26;;;;;;;;;;;26.50;46.60;;;;;;5056076;28;19915;-81
2022/07/02 07:26:52;;;;;;;;;;;26.50;46.40;;;;;;5056012;28;19991;-80
2022/07/02 07:29:17;;;;;;;;;;;26.50;44.40;;;;;;5055765;28;20293;-81
2022/07/02 07:31:43;;;;;;;;;;;26.50;45.70;;;;;;5037626;28;19923;-80
2022/07/02 07:34:09;;;;;;;;;;;26.50;45.90;;;;;;5057126;28;19963;-80
2022/07/02 07:36:34;;;;;;;;;;;26.60;45.60;;;;;;5058481;28;20387;-80
2022/07/02 07:39:01;;;;;;;;;;;26.60;45.10;;;;;;5056206;28;19913;-79
2022/07/02 07:41:27;;;;;;;;;;;26.50;45.10;;;;;;5037613;28;19909;-80
2022/07/02 07:43:53;;;;;;;;;;;26.50;45.10;;;;;;5054999;28;19909;-81
2022/07/02 07:46:19;;;;;;;;;;;26.60;45.40;;;;;;5055262;28;19913;-81
2022/07/02 07:48:45;;;;;;;;;;;26.60;44.50;;;;;;5055216;28;19913;-81
2022/07/02 07:51:10;;;;;;;;;;;26.50;44.70;;;;;;5055056;28;19924;-81
2022/07/02 07:53:36;;;;;;;;;;;26.50;44.50;;;;;;5055021;28;20378;-81
2022/07/02 07:56:01;;;;;;;;;;;26.50;44.40;;;;;;5055219;28;19908;-80
2022/07/02 07:58:29;;;;;;;;;;;26.40;44.50;;;;;;5037662;28;20279;-80
2022/07/02 08:00:55;;;;;;;;;;;26.40;44.20;;;;;;5055253;28;19937;-80
2022/07/02 08:03:20;;;;;;;;;;;26.40;43.80;;;;;;5055500;28;19909;-80
2022/07/02 08:05:46;;;;;;;;;;;26.30;44.90;;;;;;5037125;28;20007;-80
2022/07/02 08:08:12;;;;;;;;;;;26.40;44.80;;;;;;5054964;28;19932;-80
2022/07/02 08:10:38;;;;;;;;;;;26.40;44.40;;;;;;5054680;28;20330;-80
2022/07/02 08:13:04;;;;;;;;;;;26.40;44.10;;;;;;5054465;28;19962;-81
2022/07/02 08:15:29;;;;;;;;;;;26.40;44.10;;;;;;5054450;28;19962;-81
2022/07/02 08:17:55;;;;;;;;;;;26.40;44.40;;;;;;5055067;28;20050;-81
2022/07/02 08:20:20;;;;;;;;;;;26.40;44.40;;;;;;5054645;28;19908;-81
2022/07/02 08:22:47;;;;;;;;;;;26.50;44.20;;;;;;5054464;28;19916;-81
2022/07/02 08:25:15;;;;;;;;;;;26.50;43.90;;;;;;5055295;28;20016;-79
2022/07/02 08:27:41;;;;;;;;;;;26.40;44.10;;;;;;5054256;28;19909;-80
2022/07/02 08:30:07;;;;;;;;;;;26.40;43.60;;;;;;5054291;28;20278;-81
2022/07/02 08:32:33;;;;;;;;;;;26.30;44.00;;;;;;5036541;28;19913;-81
2022/07/02 08:34:59;;;;;;;;;;;26.30;44.50;;;;;;5054284;28;19964;-81
2022/07/02 08:37:24;;;;;;;;;;;26.30;44.40;;;;;;5054240;28;19920;-81
2022/07/02 08:39:50;;;;;;;;;;;26.40;44.20;;;;;;5036527;28;19921;-81
2022/07/02 08:42:23;;;;;;;;;;;26.40;44.10;;;;;;5054082;28;20370;-80
2022/07/02 08:44:50;;;;;;;;;;;26.40;44.10;;;;;;5057367;28;19943;-79
2022/07/02 08:47:15;;;;;;;;;;;26.40;44.00;;;;;;5055456;28;19936;-81
2022/07/02 08:49:42;;;;;;;;;;;26.40;44.00;;;;;;5054695;28;19909;-80
2022/07/02 08:52:08;;;;;;;;;;;26.40;44.40;;;;;;5054231;28;19916;-81
2022/07/02 08:54:34;;;;;;;;;;;26.40;43.60;;;;;;5036256;28;19909;-81
2022/07/02 08:57:01;;;;;;;;;;;26.40;43.40;;;;;;5053295;28;20379;-81
2022/07/02 08:59:27;;;;;;;;;;;26.30;43.50;;;;;;5053753;28;19957;-80
2022/07/02 09:01:53;;;;;;;;;;;26.30;43.60;;;;;;5053774;28;20278;-81
2022/07/02 09:04:19;;;;;;;;;;;26.30;43.50;;;;;;5053823;28;19916;-81
2022/07/02 09:06:47;;;;;;;;;;;26.30;43.80;;;;;;5054032;28;19912;-84
2022/07/02 09:09:13;;;;;;;;;;;26.30;44.00;;;;;;5053537;28;20011;-81
2022/07/02 09:11:39;;;;;;;;;;;26.30;44.40;;;;;;5053660;28;20304;-81
2022/07/02 09:14:04;;;;;;;;;;;26.40;44.40;;;;;;5054021;28;20314;-81
2022/07/02 09:16:30;;;;;;;;;;;26.40;43.70;;;;;;5053892;28;20282;-81
2022/07/02 09:18:56;;;;;;;;;;;26.40;44.00;;;;;;5019481;28;20374;-81
2022/07/02 09:21:21;;;;;;;;;;;26.40;44.00;;;;;;5053597;28;19908;-81
2022/07/02 09:23:48;;;;;;;;;;;26.40;44.00;;;;;;5053865;28;19909;-82
2022/07/02 09:26:18;;;;;;;;;;;26.50;44.40;;;;;;5053761;28;19913;-81
2022/07/02 09:28:54;;;;;;;;;;;26.50;44.20;;;;;;5053690;28;19913;-81
2022/07/02 09:31:19;;;;;;;;;;;26.60;44.20;;;;;;5036072;28;20274;-81
2022/07/02 09:33:45;;;;;;;;;;;26.70;43.80;;;;;;5053563;28;19909;-81
2022/07/02 09:36:11;;;;;;;;;;;26.70;43.50;;;;;;5053464;28;19979;-80
2022/07/02 09:38:44;;;;;;;;;;;26.70;43.80;;;;;;5035525;28;19917;-81
2022/07/02 09:41:13;;;;;;;;;;;26.70;43.40;;;;;;5035860;28;19909;-80
2022/07/02 09:43:40;;;;;;;;;;;26.70;43.60;;;;;;5035785;28;19931;-81
2022/07/02 09:46:20;;;;;;;;;;;25.60;42.60;;;;;;5053504;28;19912;-80
2022/07/02 09:48:49;;;;;;;;;;;26.70;43.60;;;;;;5035885;28;19920;-80
2022/07/02 09:51:15;;;;;;;;;;;26.70;44.10;;;;;;5053507;28;19912;-83
2022/07/02 09:53:51;;;;;;;;;;;26.70;43.40;;;;;;5036586;28;19915;-81
2022/07/02 09:56:17;;;;;;;;;;;26.80;43.30;;;;;;5055265;28;20363;-81
2022/07/02 09:58:43;;;;;;;;;;;26.80;43.50;;;;;;5053131;28;19917;-81
2022/07/02 10:01:09;;;;;;;;;;;26.80;43.20;;;;;;5053620;28;19955;-81
2022/07/02 10:03:57;;;;;;;;;;;26.80;43.30;;;;;;5053485;28;19978;-81
2022/07/02 10:06:22;;;;;;;;;;;26.80;43.30;;;;;;5053292;28;19909;-80
2022/07/02 10:08:48;;;;;;;;;;;26.80;43.00;;;;;;5053937;28;19915;-82
2022/07/02 10:11:14;;;;;;;;;;;26.80;42.90;;;;;;5039130;28;19909;-80
2022/07/02 10:13:41;;;;;;;;;;;26.80;43.30;;;;;;5038550;28;19920;-81
2022/07/02 10:16:17;;;;;;;;;;;26.90;43.40;;;;;;5038648;28;20309;-80
2022/07/02 10:18:43;;;;;;;;;;;26.90;41.90;;;;;;5038561;28;19917;-82
2022/07/02 10:21:13;;;;;;;;;;;26.90;42.70;;;;;;5056968;28;19909;-81
2022/07/02 10:23:39;;;;;;;;;;;26.90;42.40;;;;;;5057325;28;19948;-81
2022/07/02 10:26:05;;;;;;;;;;;26.90;42.90;;;;;;5038694;28;19916;-82
2022/07/02 10:28:30;;;;;;;;;;;26.90;42.90;;;;;;5039037;28;20377;-80
2022/07/02 10:30:56;;;;;;;;;;;26.90;42.80;;;;;;5039211;28;19909;-80
2022/07/02 10:33:26;;;;;;;;;;;26.50;41.90;;;;;;5056470;28;20256;-80
2022/07/02 10:35:51;;;;;;;;;;;27.00;42.10;;;;;;5056414;28;19930;-80
2022/07/02 10:38:30;;;;;;;;;;;27.00;41.80;;;;;;5056530;28;19959;-81
2022/07/02 10:40:56;;;;;;;;;;;27.00;41.40;;;;;;5056769;28;20323;-79
2022/07/02 10:43:22;;;;;;;;;;;27.00;41.00;;;;;;5056628;28;19952;-78
2022/07/02 10:45:48;;;;;;;;;;;27.00;41.20;;;;;;5056817;28;19917;-78
2022/07/02 10:48:14;;;;;;;;;;;27.00;41.70;;;;;;5038915;28;20251;-79
2022/07/02 10:50:42;;;;;;;;;;;26.90;41.10;;;;;;5038934;28;19909;-79
2022/07/02 10:53:11;;;;;;;;;;;27.00;42.50;;;;;;5056179;28;19956;-79
2022/07/02 10:55:37;;;;;;;;;;;27.00;41.30;;;;;;5038158;28;19916;-79
2022/07/02 10:58:04;;;;;;;;;;;27.00;41.00;;;;;;5038020;28;20011;-79
2022/07/02 11:00:31;;;;;;;;;;;27.00;40.90;;;;;;5038572;28;20350;-79
2022/07/02 11:02:58;;;;;;;;;;;27.00;41.20;;;;;;5056862;28;19917;-78
2022/07/02 11:05:24;;;;;;;;;;;27.10;41.70;;;;;;5056421;28;19916;-78
2022/07/02 11:07:50;;;;;;;;;;;27.10;41.20;;;;;;5038050;28;19913;-79
2022/07/02 11:10:26;;;;;;;;;;;27.10;41.70;;;;;;5055766;28;19915;-79
2022/07/02 11:12:57;;;;;;;;;;;27.10;40.90;;;;;;5056334;28;19909;-79
2022/07/02 11:15:30;;;;;;;;;;;27.10;41.40;;;;;;5056568;28;20309;-78
2022/07/02 11:17:58;;;;;;;;;;;27.20;41.20;;;;;;5037903;28;19920;-78
2022/07/02 11:20:27;;;;;;;;;;;27.20;42.00;;;;;;5054580;28;19999;-78
2022/07/02 11:22:53;;;;;;;;;;;27.20;41.10;;;;;;5055655;28;19935;-78
2022/07/02 11:25:19;;;;;;;;;;;27.20;41.30;;;;;;5055684;28;19941;-78
2022/07/02 11:27:58;;;;;;;;;;;27.20;40.80;;;;;;5037437;28;19963;-80
2022/07/02 11:30:25;;;;;;;;;;;27.20;40.90;;;;;;5055335;28;19916;-78
2022/07/02 11:32:50;;;;;;;;;;;27.30;41.00;;;;;;5037460;28;19919;-79
2022/07/02 11:35:16;;;;;;;;;;;27.30;40.40;;;;;;5055077;28;19912;-78
2022/07/02 11:37:45;;;;;;;;;;;27.30;40.10;;;;;;5055577;28;19920;-79
2022/07/02 11:40:20;;;;;;;;;;;27.30;40.30;;;;;;5055502;28;19909;-78
2022/07/02 11:42:46;;;;;;;;;;;27.30;39.60;;;;;;5055029;28;19908;-79
2022/07/02 11:45:11;;;;;;;;;;;27.30;40.70;;;;;;5055278;28;19920;-78
2022/07/02 11:47:44;;;;;;;;;;;27.40;41.20;;;;;;5037122;28;19912;-78
2022/07/02 11:50:10;;;;;;;;;;;27.40;40.00;;;;;;5055297;28;20263;-78
2022/07/02 11:52:36;;;;;;;;;;;27.40;41.20;;;;;;5054933;28;20383;-78
2022/07/02 11:55:04;;;;;;;;;;;27.40;40.00;;;;;;5055145;28;19944;-80
2022/07/02 11:57:33;;;;;;;;;;;27.50;40.00;;;;;;5055240;28;19921;-77
2022/07/02 11:59:59;;;;;;;;;;;27.40;40.10;;;;;;5054944;28;19909;-80
2022/07/02 12:02:25;;;;;;;;;;;27.50;40.80;;;;;;5055296;28;19915;-78
2022/07/02 12:04:50;;;;;;;;;;;27.50;40.10;;;;;;5055296;28;20007;-79
2022/07/02 12:07:16;;;;;;;;;;;27.50;40.10;;;;;;5056830;28;19909;-78
2022/07/02 12:09:41;;;;;;;;;;;27.50;39.50;;;;;;5036824;28;19908;-78
2022/07/02 12:12:07;;;;;;;;;;;27.50;39.40;;;;;;5038659;28;19915;-79
2022/07/02 12:14:33;;;;;;;;;;;27.50;39.60;;;;;;5055759;28;19986;-79
2022/07/02 12:16:59;;;;;;;;;;;27.50;38.70;;;;;;5037598;28;19917;-79
2022/07/02 12:19:28;;;;;;;;;;;27.60;39.50;;;;;;5054541;28;20457;-79
2022/07/02 12:21:54;;;;;;;;;;;27.60;39.50;;;;;;5054882;28;19909;-77
2022/07/02 12:24:28;;;;;;;;;;;27.70;40.00;;;;;;5054811;28;20256;-78
2022/07/02 12:26:54;;;;;;;;;;;27.70;39.50;;;;;;5036698;28;19940;-79
2022/07/02 12:32:09;;;;;;;;;;;27.80;39.40;;;;;;5054132;28;19962;-77
2022/07/02 12:34:49;;;;;;;;;;;27.80;39.30;;;;;;5054389;28;19909;-77
2022/07/02 12:37:37;;;;;;;;;;;27.80;38.90;;;;;;5054346;28;20023;-78
2022/07/02 12:40:05;;;;;;;;;;;27.90;39.30;;;;;;5043427;28;19992;-79
2022/07/02 12:42:33;;;;;;;;;;;28.00;39.20;;;;;;5054245;28;20457;-78
2022/07/02 12:44:59;;;;;;;;;;;28.10;38.90;;;;;;5054253;28;19912;-78
2022/07/02 12:47:27;;;;;;;;;;;28.20;39.10;;;;;;5054120;28;19913;-78
2022/07/02 12:50:01;;;;;;;;;;;28.20;39.40;;;;;;5054190;28;19909;-79
2022/07/02 12:52:28;;;;;;;;;;;28.30;38.90;;;;;;5053815;28;19909;-79
2022/07/02 12:54:54;;;;;;;;;;;28.40;39.20;;;;;;5053996;28;19909;-78
2022/07/02 12:57:20;;;;;;;;;;;28.50;39.10;;;;;;5054637;28;19928;-78
2022/07/02 12:59:47;;;;;;;;;;;28.60;39.00;;;;;;5036136;28;19909;-77
2022/07/02 13:02:14;;;;;;;;;;;28.60;39.20;;;;;;5036418;28;19956;-78
2022/07/02 13:04:39;;;;;;;;;;;28.70;39.00;;;;;;5035968;28;19931;-78
2022/07/02 13:07:05;;;;;;;;;;;28.80;38.90;;;;;;5019717;28;19908;-78
2022/07/02 13:09:30;;;;;;;;;;;28.90;39.10;;;;;;5054832;28;19916;-78
2022/07/02 13:11:56;;;;;;;;;;;29.00;39.10;;;;;;5055309;28;20382;-78
2022/07/02 13:14:22;;;;;;;;;;;29.10;38.80;;;;;;5054227;28;19913;-78
2022/07/02 13:16:47;;;;;;;;;;;29.30;38.60;;;;;;5036002;28;19917;-78
2022/07/02 13:19:13;;;;;;;;;;;29.40;38.50;;;;;;5035839;28;20318;-78
2022/07/02 13:21:38;;;;;;;;;;;29.40;38.40;;;;;;5057467;28;19944;-78
2022/07/02 13:24:04;;;;;;;;;;;29.60;38.50;;;;;;5053683;28;20360;-79
2022/07/02 13:26:29;;;;;;;;;;;29.70;38.70;;;;;;5053741;28;19920;-78
2022/07/02 13:28:55;;;;;;;;;;;29.80;38.00;;;;;;5053750;28;20022;-78
2022/07/02 13:31:21;;;;;;;;;;;29.90;38.10;;;;;;5053891;28;20278;-78
2022/07/02 13:33:46;;;;;;;;;;;30.00;38.00;;;;;;5054293;28;19909;-79
2022/07/02 13:36:12;;;;;;;;;;;30.20;38.10;;;;;;5053678;28;19935;-78
2022/07/02 13:38:37;;;;;;;;;;;30.50;38.00;;;;;;5054377;28;19920;-79
2022/07/02 13:41:03;;;;;;;;;;;31.00;37.30;;;;;;5054104;28;19919;-78
2022/07/02 13:43:28;;;;;;;;;;;31.40;37.00;;;;;;5035954;28;20278;-77
2022/07/02 13:45:54;;;;;;;;;;;32.00;37.00;;;;;;5057938;28;20323;-78
2022/07/02 13:48:20;;;;;;;;;;;32.60;36.20;;;;;;5057255;28;20020;-77
2022/07/02 13:50:45;;;;;;;;;;;33.30;36.30;;;;;;5039513;28;19915;-78
2022/07/02 13:53:11;;;;;;;;;;;34.00;36.30;;;;;;5057387;28;20003;-79
2022/07/02 13:55:37;;;;;;;;;;;34.60;36.30;;;;;;5039466;28;19931;-78
2022/07/02 13:58:02;;;;;;;;;;;35.20;36.60;;;;;;5057046;28;19978;-78
2022/07/02 14:00:28;;;;;;;;;;;35.80;35.60;;;;;;5057091;28;19912;-79
2022/07/02 14:02:54;;;;;;;;;;;36.40;36.00;;;;;;5057168;28;19909;-79
2022/07/02 14:05:19;;;;;;;;;;;37.00;35.40;;;;;;5039226;28;19915;-78
2022/07/02 14:07:45;;;;;;;;;;;37.60;35.80;;;;;;5039175;28;19909;-78
2022/07/02 14:10:10;;;;;;;;;;;38.10;35.90;;;;;;5039122;28;20355;-79
2022/07/02 14:12:36;;;;;;;;;;;38.60;35.80;;;;;;5056992;28;19909;-78
2022/07/02 14:15:01;;;;;;;;;;;39.00;34.30;;;;;;5057032;28;19948;-78
2022/07/02 14:17:27;;;;;;;;;;;39.50;35.30;;;;;;5056784;28;19917;-79
2022/07/02 14:19:53;;;;;;;;;;;39.90;35.10;;;;;;5056909;28;19909;-78